aviador You're here:

YTEF Decoded Metar

TELFER AIRPORT in _UNIDENTIFIED
Report Time2018-01-19 18:00:00
UTC Time2018-01-19 18:50:47
Flight Rules vfr VFR
Wind310° at 08 kt
W.Decomp.*RWY 30: 7.9 kt HW 1.1 kt RCW
W.Rank310° ranks 7
Current wind is above 310° avg. (7.9)
Visibility9999 m
Phenomena:N/A
Clouds:N/A
Expected CloudBase > 3,200 ft AGL from Temp-Dew spread
CeilingNone
Temp28°C (ISA +15)
Dew Point20°C (62% RH)
Heat Index29.7°C
QNH1005 hPa
Density Alt3,268 ft
Elevation971 ft
Report Wrong Elevation
Raw Report
YTEF 191800Z AUTO 31008KT 9999 // NCD 28/20 Q1005=

Extra information for YTEF:More info

Metar Taf Metar & Taf Last 4 Metars F.Rules Stats Wind Profile Meteogram Temp Stats Airport Information Weather charts Add Link Nearby VenuesMetar ALERT Operation Metar Decoded Social comments